Time;durP1;ratioP1;P1;durP2;ratioP2;P2;SDS_P1;SDS_P2;PMS_P1;PMS_P2;Temp;Humidity;BMP_temperature;BMP_pressure;BME280_temperature;BME280_humidity;BME280_pressure;Samples;Min_cycle;Max_cycle;Signal;HPM_P1;HPM_P2
2024/02/23 00:01:31;;;;;;;1.52;1.42;;;10.00;99.90;;;;;;5079626;28;20028;-58
2024/02/23 00:03:57;;;;;;;2.17;1.60;;;9.90;99.90;;;;;;5081331;28;20056;-59
2024/02/23 00:06:27;;;;;;;1.40;1.30;;;9.90;99.90;;;;;;5077809;28;20439;-59
2024/02/23 00:08:54;;;;;;;1.85;1.48;;;9.90;99.90;;;;;;5077388;28;20048;-59
2024/02/23 00:11:20;;;;;;;2.10;1.70;;;9.80;99.90;;;;;;5078899;28;20502;-58
2024/02/23 00:13:46;;;;;;;1.35;1.25;;;9.90;99.90;;;;;;5079291;28;20038;-58
2024/02/23 00:16:11;;;;;;;1.30;1.20;;;9.80;99.90;;;;;;5079427;28;20032;-59
2024/02/23 00:18:38;;;;;;;1.15;1.05;;;9.80;99.90;;;;;;5079220;28;20040;-59
2024/02/23 00:21:03;;;;;;;1.17;1.02;;;9.70;99.90;;;;;;5081018;28;20032;-58
2024/02/23 00:23:29;;;;;;;3.28;1.00;;;9.80;99.90;;;;;;5078703;28;20089;-58
2024/02/23 00:25:54;;;;;;;10.48;1.60;;;9.80;99.90;;;;;;5079386;28;20032;-58
2024/02/23 00:28:20;;;;;;;1.58;1.35;;;9.80;99.90;;;;;;5074827;28;20020;-58
2024/02/23 00:30:45;;;;;;;1.65;1.13;;;9.80;99.90;;;;;;5079211;28;20020;-58
2024/02/23 00:33:11;;;;;;;1.52;1.00;;;9.80;99.90;;;;;;5078858;28;20839;-59
2024/02/23 00:35:36;;;;;;;2.40;1.42;;;9.80;99.90;;;;;;5079256;28;20024;-58
2024/02/23 00:38:02;;;;;;;5.03;1.20;;;9.80;99.90;;;;;;5075088;28;20028;-59
2024/02/23 00:40:27;;;;;;;1.25;0.85;;;9.80;99.90;;;;;;5072803;28;20036;-59
2024/02/23 00:42:53;;;;;;;1.25;1.02;;;9.90;99.90;;;;;;5077298;28;20032;-58
2024/02/23 00:45:19;;;;;;;2.42;1.00;;;9.80;99.90;;;;;;5078361;28;20042;-59
2024/02/23 00:47:46;;;;;;;1.27;0.90;;;9.90;99.90;;;;;;5078071;28;20039;-58
2024/02/23 00:50:12;;;;;;;2.25;1.08;;;10.00;99.90;;;;;;5078731;28;20035;-58
2024/02/23 00:52:38;;;;;;;1.20;1.10;;;10.00;99.90;;;;;;5080814;28;20028;-58
2024/02/23 00:55:03;;;;;;;1.15;0.80;;;10.10;99.90;;;;;;5078451;28;20504;-59
2024/02/23 00:57:30;;;;;;;1.02;0.80;;;10.20;99.90;;;;;;5076871;28;20401;-58
2024/02/23 00:59:58;;;;;;;1.60;1.20;;;10.10;99.90;;;;;;5077982;28;20115;-58
2024/02/23 01:02:24;;;;;;;1.00;0.90;;;10.10;99.90;;;;;;5078653;28;20099;-58
2024/02/23 01:04:49;;;;;;;1.15;0.90;;;10.10;99.90;;;;;;5078411;28;20174;-58
2024/02/23 01:07:15;;;;;;;1.48;1.00;;;10.10;99.90;;;;;;5078288;28;20055;-59
2024/02/23 01:09:40;;;;;;;1.80;0.85;;;10.00;99.90;;;;;;5076376;28;20047;-58
2024/02/23 01:12:06;;;;;;;0.95;0.93;;;10.00;99.90;;;;;;5077397;28;20040;-58
2024/02/23 01:14:32;;;;;;;1.35;1.25;;;10.00;99.90;;;;;;5078505;28;20528;-59
2024/02/23 01:16:57;;;;;;;1.40;0.98;;;9.90;99.90;;;;;;5078175;28;20039;-58
2024/02/23 01:19:23;;;;;;;1.08;0.93;;;9.90;99.90;;;;;;5077888;28;20085;-59
2024/02/23 01:21:55;;;;;;;2.22;0.90;;;10.00;99.90;;;;;;5079987;28;20020;-58
2024/02/23 01:24:21;;;;;;;1.10;0.85;;;10.00;99.90;;;;;;5075990;28;20135;-58
2024/02/23 01:26:46;;;;;;;1.38;0.90;;;10.00;99.90;;;;;;5078537;28;20637;-58
2024/02/23 01:29:12;;;;;;;2.85;1.27;;;10.10;99.90;;;;;;5080137;28;20205;-58
2024/02/23 01:31:37;;;;;;;4.28;1.00;;;10.10;99.90;;;;;;5078176;28;20024;-59
2024/02/23 01:34:03;;;;;;;0.98;0.80;;;10.20;99.90;;;;;;5080088;28;20055;-58
2024/02/23 01:36:28;;;;;;;1.98;1.30;;;10.20;99.90;;;;;;5079972;28;20027;-58
2024/02/23 01:38:54;;;;;;;0.80;0.70;;;10.20;99.90;;;;;;5079286;28;20020;-58
2024/02/23 01:41:20;;;;;;;1.33;0.98;;;10.20;99.90;;;;;;5080067;28;20047;-59
2024/02/23 01:43:45;;;;;;;1.20;0.90;;;10.20;99.90;;;;;;5079971;28;20549;-58
2024/02/23 01:46:11;;;;;;;1.73;1.10;;;10.10;99.90;;;;;;5079883;28;20024;-58
2024/02/23 01:48:37;;;;;;;0.70;0.70;;;10.10;99.90;;;;;;5079840;28;20039;-58
2024/02/23 01:51:03;;;;;;;1.10;1.00;;;10.00;99.90;;;;;;5073738;28;20035;-58
2024/02/23 01:53:28;;;;;;;1.17;0.90;;;10.00;99.90;;;;;;5075123;28;20387;-59
2024/02/23 01:55:54;;;;;;;1.20;0.80;;;10.00;99.90;;;;;;5074408;28;20016;-58
2024/02/23 01:58:21;;;;;;;1.50;0.95;;;10.00;99.90;;;;;;5078473;28;20044;-59
2024/02/23 02:00:46;;;;;;;1.10;0.82;;;10.00;99.90;;;;;;5074659;28;20039;-59
2024/02/23 02:03:12;;;;;;;2.80;0.82;;;10.00;99.90;;;;;;5075718;28;20024;-58
2024/02/23 02:05:37;;;;;;;1.30;0.90;;;10.00;99.90;;;;;;5075566;28;20404;-58
2024/02/23 02:08:03;;;;;;;1.60;0.70;;;10.00;99.90;;;;;;5079588;28;20560;-59
2024/02/23 02:10:29;;;;;;;1.25;0.80;;;10.00;99.90;;;;;;5073159;28;20031;-58
2024/02/23 02:12:54;;;;;;;1.55;1.20;;;10.00;99.90;;;;;;5076265;28;20059;-58
2024/02/23 02:15:21;;;;;;;0.93;0.90;;;10.10;99.90;;;;;;5077353;28;20047;-58
2024/02/23 02:17:47;;;;;;;1.58;1.08;;;10.10;99.90;;;;;;5067538;28;20466;-59
2024/02/23 02:20:13;;;;;;;0.82;0.80;;;10.10;99.90;;;;;;5078957;28;20111;-59
2024/02/23 02:22:39;;;;;;;1.42;0.75;;;10.10;99.90;;;;;;5079293;28;20036;-58
2024/02/23 02:25:06;;;;;;;0.60;0.60;;;10.10;99.90;;;;;;5081309;28;20047;-59
2024/02/23 02:27:32;;;;;;;0.82;0.75;;;10.20;99.90;;;;;;5080910;28;20580;-59
2024/02/23 02:29:58;;;;;;;1.02;0.80;;;10.20;99.90;;;;;;5079611;28;20099;-58
2024/02/23 02:32:23;;;;;;;1.48;1.17;;;10.30;99.90;;;;;;5079222;28;20095;-58
2024/02/23 02:34:49;;;;;;;3.88;1.13;;;10.30;99.90;;;;;;5079163;28;20051;-58
2024/02/23 02:37:14;;;;;;;2.55;0.80;;;10.30;99.90;;;;;;5079054;28;20259;-59
2024/02/23 02:39:40;;;;;;;0.90;0.60;;;10.40;99.90;;;;;;5075889;28;20016;-58
2024/02/23 02:42:06;;;;;;;0.82;0.68;;;10.40;99.90;;;;;;5077841;28;20024;-58
2024/02/23 02:44:31;;;;;;;1.73;0.70;;;10.40;99.90;;;;;;5079072;28;20044;-58
2024/02/23 02:46:57;;;;;;;1.20;0.47;;;10.40;97.50;;;;;;5075020;28;20019;-58
2024/02/23 02:49:23;;;;;;;0.45;0.38;;;10.40;95.70;;;;;;5077707;28;20277;-58
2024/02/23 02:51:48;;;;;;;0.73;0.40;;;10.40;94.40;;;;;;5079333;28;20032;-59
2024/02/23 02:54:14;;;;;;;2.22;0.50;;;10.30;92.60;;;;;;5080877;28;20020;-58
2024/02/23 02:56:43;;;;;;;1.00;0.40;;;10.30;92.30;;;;;;5078903;28;20073;-58
2024/02/23 02:59:10;;;;;;;1.02;0.20;;;10.20;88.70;;;;;;5078858;28;20073;-58
2024/02/23 03:01:35;;;;;;;1.02;0.40;;;10.20;88.30;;;;;;5078904;28;20036;-57
2024/02/23 03:04:01;;;;;;;1.83;0.40;;;10.10;87.90;;;;;;5078978;28;20651;-58
2024/02/23 03:06:26;;;;;;;1.40;0.32;;;10.10;86.00;;;;;;5082993;28;20020;-58
2024/02/23 03:08:52;;;;;;;1.08;0.57;;;10.00;85.50;;;;;;5084446;28;20043;-59
2024/02/23 03:11:17;;;;;;;1.25;0.30;;;10.00;85.40;;;;;;5083108;28;20056;-58
2024/02/23 03:13:43;;;;;;;0.52;0.30;;;9.90;86.30;;;;;;5082815;28;20115;-59
2024/02/23 03:16:15;;;;;;;1.45;0.60;;;9.80;87.00;;;;;;5083029;28;20020;-58
2024/02/23 03:18:41;;;;;;;0.45;0.30;;;9.80;86.10;;;;;;5082986;28;20024;-58
2024/02/23 03:21:06;;;;;;;1.52;0.45;;;9.80;84.10;;;;;;5078680;28;20424;-58
2024/02/23 03:23:32;;;;;;;1.58;0.30;;;9.70;83.10;;;;;;5078562;28;20032;-58
2024/02/23 03:25:57;;;;;;;1.45;0.30;;;9.70;83.10;;;;;;5082640;28;20032;-58
2024/02/23 03:28:23;;;;;;;0.65;0.43;;;9.70;83.20;;;;;;5080180;28;20114;-59
2024/02/23 03:30:48;;;;;;;1.10;0.40;;;9.60;81.60;;;;;;5075621;28;20020;-58
2024/02/23 03:33:14;;;;;;;1.80;0.30;;;9.60;81.90;;;;;;5075666;28;20163;-59
2024/02/23 03:35:39;;;;;;;1.77;0.60;;;9.60;81.60;;;;;;5076717;28;20098;-58
2024/02/23 03:38:04;;;;;;;0.30;0.30;;;9.60;81.60;;;;;;5082212;28;20066;-58
2024/02/23 03:40:30;;;;;;;0.98;0.30;;;9.50;81.70;;;;;;5072760;28;20059;-57
2024/02/23 03:42:55;;;;;;;0.47;0.20;;;9.40;81.70;;;;;;5084401;28;20028;-59
2024/02/23 03:45:21;;;;;;;0.90;0.25;;;9.50;81.20;;;;;;5078781;28;20028;-59
2024/02/23 03:47:46;;;;;;;0.63;0.50;;;9.40;81.00;;;;;;5076591;28;20036;-58
2024/02/23 03:50:12;;;;;;;2.58;0.65;;;9.40;81.30;;;;;;5078199;28;20043;-59
2024/02/23 03:52:37;;;;;;;2.25;0.30;;;9.40;81.00;;;;;;5073989;28;20028;-58
2024/02/23 03:55:03;;;;;;;0.50;0.30;;;9.30;81.20;;;;;;5081892;28;20042;-58
2024/02/23 03:57:29;;;;;;;1.02;0.30;;;9.30;80.20;;;;;;5079884;28;20099;-59
2024/02/23 03:59:55;;;;;;;1.27;0.30;;;9.30;80.40;;;;;;5082120;28;20024;-59
2024/02/23 04:02:21;;;;;;;2.85;0.50;;;9.30;80.20;;;;;;5082034;28;20028;-59
2024/02/23 04:04:47;;;;;;;0.80;0.40;;;9.20;79.90;;;;;;5080941;28;20031;-63
2024/02/23 04:07:13;;;;;;;0.45;0.20;;;9.10;80.10;;;;;;5079457;28;20024;-59
2024/02/23 04:09:38;;;;;;;0.20;0.20;;;9.10;80.30;;;;;;5074701;28;20429;-59
2024/02/23 04:12:04;;;;;;;1.02;0.30;;;9.00;80.40;;;;;;5078359;28;20529;-59
2024/02/23 04:14:29;;;;;;;0.22;0.22;;;8.90;80.40;;;;;;5081201;28;20114;-60
2024/02/23 04:16:55;;;;;;;1.20;0.40;;;8.80;80.70;;;;;;5079920;28;20445;-60
2024/02/23 04:19:20;;;;;;;3.22;0.50;;;8.80;81.20;;;;;;5080620;28;20036;-59
2024/02/23 04:21:46;;;;;;;0.55;0.40;;;8.70;81.40;;;;;;5080561;28;20105;-60
2024/02/23 04:24:11;;;;;;;1.08;0.30;;;8.70;81.40;;;;;;5082706;28;20024;-59
2024/02/23 04:26:37;;;;;;;0.10;0.10;;;8.70;80.60;;;;;;5080675;28;20089;-60
2024/02/23 04:29:02;;;;;;;0.90;0.28;;;8.60;81.70;;;;;;5080366;28;20519;-59
2024/02/23 04:31:28;;;;;;;0.82;0.25;;;8.50;81.90;;;;;;5078688;28;20040;-60
2024/02/23 04:33:53;;;;;;;0.93;0.40;;;8.50;82.00;;;;;;5080413;28;20024;-60
2024/02/23 04:36:21;;;;;;;0.25;0.22;;;8.40;81.80;;;;;;5080425;28;20032;-59
2024/02/23 04:38:46;;;;;;;0.85;0.40;;;8.40;81.80;;;;;;5076206;28;20024;-59
2024/02/23 04:41:12;;;;;;;3.45;0.40;;;8.40;81.50;;;;;;5078108;28;20435;-60
2024/02/23 04:43:37;;;;;;;0.68;0.30;;;8.40;81.10;;;;;;5080307;28;20032;-60
2024/02/23 04:46:03;;;;;;;0.85;0.55;;;8.40;81.60;;;;;;5078904;28;20020;-59
2024/02/23 04:48:30;;;;;;;1.55;0.30;;;8.30;81.60;;;;;;5080345;28;20036;-59
2024/02/23 04:50:56;;;;;;;0.50;0.40;;;8.30;81.20;;;;;;5080178;28;20043;-59
2024/02/23 04:53:22;;;;;;;0.77;0.40;;;8.30;81.10;;;;;;5074611;28;20500;-56
2024/02/23 04:55:47;;;;;;;2.13;0.40;;;8.30;81.00;;;;;;5082161;28;20024;-59
2024/02/23 04:58:13;;;;;;;2.10;0.57;;;8.30;79.20;;;;;;5075440;28;20455;-59
2024/02/23 05:00:39;;;;;;;2.13;0.50;;;8.40;79.10;;;;;;5075867;28;20039;-59
2024/02/23 05:03:06;;;;;;;0.90;0.30;;;8.40;79.10;;;;;;5074673;28;20581;-59
2024/02/23 05:05:31;;;;;;;2.17;1.48;;;8.30;78.90;;;;;;5075772;28;20025;-59
2024/02/23 05:07:57;;;;;;;1.87;0.43;;;8.30;79.00;;;;;;5041260;28;1009950;-56
2024/02/23 05:10:23;;;;;;;1.45;0.30;;;8.30;79.10;;;;;;5082701;28;20107;-60
2024/02/23 05:12:49;;;;;;;1.02;0.40;;;8.20;78.80;;;;;;5071733;28;20130;-59
2024/02/23 05:15:15;;;;;;;2.80;0.60;;;8.30;79.60;;;;;;5076072;28;20083;-59
2024/02/23 05:17:40;;;;;;;2.35;0.28;;;8.20;79.30;;;;;;5076043;28;20031;-59
2024/02/23 05:20:08;;;;;;;4.00;0.45;;;8.20;79.30;;;;;;5079198;28;20028;-59
2024/02/23 05:22:33;;;;;;;0.77;0.20;;;8.20;78.80;;;;;;5080503;28;20307;-59
2024/02/23 05:24:59;;;;;;;0.70;0.43;;;8.20;78.50;;;;;;5082415;28;20052;-59
2024/02/23 05:27:25;;;;;;;1.33;0.55;;;8.20;77.90;;;;;;5079379;28;20086;-59
2024/02/23 05:29:50;;;;;;;1.75;0.40;;;8.20;78.40;;;;;;5079396;28;20034;-59
2024/02/23 05:32:17;;;;;;;1.05;0.45;;;8.10;78.70;;;;;;5080407;28;20028;-59
2024/02/23 05:34:42;;;;;;;0.75;0.20;;;8.10;78.50;;;;;;5080105;28;20077;-59
2024/02/23 05:37:08;;;;;;;0.40;0.40;;;8.10;78.10;;;;;;5079964;28;20075;-58
2024/02/23 05:39:33;;;;;;;0.32;0.32;;;8.10;77.90;;;;;;5071957;28;20028;-60
2024/02/23 05:41:59;;;;;;;1.33;0.38;;;8.10;79.00;;;;;;5076045;28;20536;-59
2024/02/23 05:44:25;;;;;;;0.52;0.32;;;8.00;79.30;;;;;;5073632;28;20334;-59
2024/02/23 05:46:50;;;;;;;0.20;0.20;;;8.00;79.30;;;;;;5078687;28;20761;-60
2024/02/23 05:49:16;;;;;;;2.08;0.45;;;7.90;79.50;;;;;;5080029;28;20052;-60
2024/02/23 05:51:41;;;;;;;1.17;0.65;;;7.90;79.20;;;;;;5080125;28;20081;-59
2024/02/23 05:54:08;;;;;;;0.88;0.40;;;8.00;78.90;;;;;;5077696;28;20020;-59
2024/02/23 05:56:33;;;;;;;4.55;0.40;;;8.00;79.10;;;;;;5070026;28;20064;-59
2024/02/23 05:58:59;;;;;;;0.70;0.40;;;8.10;78.80;;;;;;5078064;28;20512;-59
2024/02/23 06:01:24;;;;;;;0.35;0.30;;;8.10;78.40;;;;;;5079157;28;20059;-59
2024/02/23 06:03:50;;;;;;;1.40;0.38;;;8.10;78.00;;;;;;5079825;28;20034;-59
2024/02/23 06:06:15;;;;;;;0.22;0.20;;;8.00;77.60;;;;;;5079957;28;20379;-60
2024/02/23 06:08:41;;;;;;;0.70;0.25;;;7.90;77.30;;;;;;5081246;28;20044;-61
2024/02/23 06:11:09;;;;;;;0.22;0.22;;;7.90;77.10;;;;;;5080538;28;20455;-61
2024/02/23 06:13:35;;;;;;;1.00;0.40;;;7.70;76.60;;;;;;5079690;28;20102;-60
2024/02/23 06:16:00;;;;;;;3.85;0.38;;;7.70;75.80;;;;;;5080185;28;20028;-60
2024/02/23 06:18:25;;;;;;;0.30;0.30;;;7.70;75.20;;;;;;5079636;28;20062;-60
2024/02/23 06:20:51;;;;;;;0.57;0.30;;;7.60;75.00;;;;;;5079633;28;20027;-60
2024/02/23 06:23:17;;;;;;;0.40;0.30;;;7.50;75.00;;;;;;5081136;28;20027;-60
2024/02/23 06:25:46;;;;;;;0.50;0.40;;;7.50;75.60;;;;;;5081455;28;20055;-61
2024/02/23 06:28:11;;;;;;;0.43;0.30;;;7.40;76.00;;;;;;5080202;28;20481;-60
2024/02/23 06:30:37;;;;;;;4.90;0.80;;;7.30;75.80;;;;;;5076794;28;20039;-61
2024/02/23 06:33:04;;;;;;;4.93;0.80;;;7.30;75.80;;;;;;5076257;28;20035;-60
2024/02/23 06:35:29;;;;;;;1.88;1.20;;;7.30;74.90;;;;;;5079679;28;20027;-60
2024/02/23 06:37:55;;;;;;;1.48;0.80;;;7.30;74.60;;;;;;5078231;28;20039;-60
2024/02/23 06:40:20;;;;;;;1.35;0.98;;;7.30;74.90;;;;;;5075254;28;20032;-61
2024/02/23 06:42:46;;;;;;;1.25;0.93;;;7.30;74.50;;;;;;5079560;28;20052;-60
2024/02/23 06:45:11;;;;;;;1.02;0.80;;;7.20;74.50;;;;;;5079147;28;20489;-60
2024/02/23 06:47:39;;;;;;;1.83;0.80;;;7.20;75.00;;;;;;5079018;28;20039;-61
2024/02/23 06:50:05;;;;;;;0.70;0.70;;;7.20;75.60;;;;;;5079147;28;20103;-61
2024/02/23 06:52:33;;;;;;;1.42;0.57;;;7.20;75.50;;;;;;5079300;28;20111;-60
2024/02/23 06:54:58;;;;;;;1.48;0.50;;;7.10;75.40;;;;;;5078957;28;20663;-60
2024/02/23 06:57:25;;;;;;;0.50;0.40;;;7.20;76.20;;;;;;5081204;28;20040;-61
2024/02/23 06:59:51;;;;;;;1.08;0.40;;;7.20;76.10;;;;;;5079046;28;20027;-62
2024/02/23 07:02:16;;;;;;;0.80;0.70;;;7.40;75.90;;;;;;5079209;28;21339;-61
2024/02/23 07:04:42;;;;;;;0.22;0.22;;;7.50;75.60;;;;;;5076805;28;20040;-61
2024/02/23 07:07:08;;;;;;;0.35;0.35;;;7.50;75.20;;;;;;5078426;28;20032;-62
2024/02/23 07:09:34;;;;;;;0.52;0.30;;;7.60;76.40;;;;;;5078315;28;20081;-59
2024/02/23 07:12:00;;;;;;;0.65;0.32;;;7.50;75.80;;;;;;5080703;28;20050;-61
2024/02/23 07:14:26;;;;;;;0.28;0.20;;;7.50;75.90;;;;;;5078801;28;20025;-61
2024/02/23 07:16:52;;;;;;;0.20;0.20;;;7.60;76.20;;;;;;5078893;28;20586;-61
2024/02/23 07:19:19;;;;;;;0.57;0.40;;;7.60;76.10;;;;;;5078591;28;20481;-60
2024/02/23 07:21:45;;;;;;;0.43;0.30;;;7.60;76.70;;;;;;5078930;28;20111;-60
2024/02/23 07:24:11;;;;;;;0.52;0.28;;;7.70;76.50;;;;;;5078237;28;20115;-61
2024/02/23 07:26:36;;;;;;;0.55;0.30;;;7.70;76.30;;;;;;5078802;28;20043;-61
2024/02/23 07:29:02;;;;;;;3.67;0.40;;;7.70;76.40;;;;;;5080573;28;20482;-60
2024/02/23 07:31:27;;;;;;;1.00;0.30;;;7.80;77.40;;;;;;5074460;28;20036;-61
2024/02/23 07:33:53;;;;;;;0.60;0.20;;;7.90;77.30;;;;;;5078909;28;20099;-61
2024/02/23 07:36:18;;;;;;;0.50;0.25;;;8.00;77.00;;;;;;5078455;28;20031;-62
2024/02/23 07:38:44;;;;;;;0.63;0.30;;;8.20;76.60;;;;;;5072444;28;20237;-60
2024/02/23 07:41:10;;;;;;;0.75;0.40;;;8.40;77.50;;;;;;5074165;28;20020;-60
2024/02/23 07:43:36;;;;;;;0.20;0.20;;;8.50;76.70;;;;;;5078158;28;20071;-61
2024/02/23 07:46:02;;;;;;;0.57;0.30;;;8.70;76.60;;;;;;5076199;28;20540;-61
2024/02/23 07:48:28;;;;;;;0.63;0.43;;;8.80;76.80;;;;;;5078789;28;20020;-61
2024/02/23 07:50:53;;;;;;;0.52;0.30;;;9.10;76.30;;;;;;5079624;28;20020;-60
2024/02/23 07:53:19;;;;;;;0.90;0.55;;;9.20;76.70;;;;;;5080497;28;20025;-61
2024/02/23 07:55:44;;;;;;;1.60;0.43;;;9.30;76.60;;;;;;5082378;28;20103;-60
2024/02/23 07:58:09;;;;;;;0.90;0.38;;;9.40;76.60;;;;;;5083878;28;20502;-60
2024/02/23 08:00:38;;;;;;;0.80;0.63;;;9.40;77.20;;;;;;5081039;28;20516;-61
2024/02/23 08:03:03;;;;;;;0.60;0.60;;;9.30;74.50;;;;;;5082051;28;20599;-60
2024/02/23 08:05:29;;;;;;;1.92;0.63;;;9.40;76.30;;;;;;5082279;28;20024;-60
2024/02/23 08:07:54;;;;;;;1.48;0.45;;;9.60;76.80;;;;;;5081649;28;20031;-60
2024/02/23 08:10:20;;;;;;;0.35;0.35;;;9.70;76.40;;;;;;5082062;28;20496;-59
2024/02/23 08:12:46;;;;;;;1.00;0.50;;;9.90;76.60;;;;;;5084216;28;20546;-61
2024/02/23 08:15:12;;;;;;;0.32;0.20;;;10.10;76.20;;;;;;5082535;28;20020;-61
2024/02/23 08:17:37;;;;;;;0.77;0.30;;;10.30;76.70;;;;;;5081502;28;20043;-62
2024/02/23 08:20:04;;;;;;;0.63;0.38;;;10.40;76.40;;;;;;5077592;28;20404;-60
2024/02/23 08:22:29;;;;;;;1.05;0.32;;;10.60;77.10;;;;;;5080357;28;20099;-60
2024/02/23 08:24:55;;;;;;;2.03;0.30;;;10.70;77.40;;;;;;5081934;28;20095;-60
2024/02/23 08:27:20;;;;;;;0.30;0.20;;;10.90;76.70;;;;;;5083503;28;20028;-61
2024/02/23 08:29:46;;;;;;;0.70;0.43;;;10.90;78.40;;;;;;5081967;28;20028;-60
2024/02/23 08:32:12;;;;;;;0.63;0.40;;;10.70;77.20;;;;;;5080487;28;20515;-59
2024/02/23 08:34:38;;;;;;;1.60;0.22;;;10.50;74.70;;;;;;5080488;28;20070;-60
2024/02/23 08:37:03;;;;;;;0.30;0.30;;;10.30;76.20;;;;;;5081376;28;20036;-59
2024/02/23 08:39:29;;;;;;;0.50;0.38;;;10.20;76.70;;;;;;5078524;28;20051;-59
2024/02/23 08:41:54;;;;;;;0.68;0.50;;;10.10;73.80;;;;;;5077962;28;20108;-60
2024/02/23 08:44:20;;;;;;;0.73;0.60;;;10.00;74.40;;;;;;5074110;28;20040;-61
2024/02/23 08:46:45;;;;;;;0.50;0.50;;;10.00;74.80;;;;;;5076414;28;20043;-60
2024/02/23 08:49:11;;;;;;;0.35;0.35;;;10.00;74.40;;;;;;5072782;28;20072;-59
2024/02/23 08:51:36;;;;;;;2.60;0.50;;;10.00;74.50;;;;;;5075881;28;20028;-59
2024/02/23 08:54:05;;;;;;;0.50;0.40;;;10.10;73.70;;;;;;5080861;28;20055;-59
2024/02/23 08:56:31;;;;;;;1.85;0.40;;;10.10;73.10;;;;;;5077248;28;20031;-59
2024/02/23 08:58:57;;;;;;;2.28;0.40;;;10.10;72.20;;;;;;5082899;28;20094;-58
2024/02/23 09:01:23;;;;;;;1.17;0.65;;;10.10;72.30;;;;;;5081562;28;20020;-60
2024/02/23 09:03:48;;;;;;;1.65;0.47;;;10.10;72.00;;;;;;5080170;28;20169;-59
2024/02/23 09:06:14;;;;;;;0.95;0.55;;;10.00;70.60;;;;;;5080799;28;20024;-59
2024/02/23 09:08:40;;;;;;;1.90;0.30;;;10.00;70.90;;;;;;5080671;28;20517;-60
2024/02/23 09:11:06;;;;;;;0.47;0.45;;;9.90;70.80;;;;;;5080849;28;20027;-59
2024/02/23 09:13:32;;;;;;;0.82;0.43;;;9.90;70.60;;;;;;5082681;28;20496;-60
2024/02/23 09:15:57;;;;;;;0.50;0.40;;;9.90;70.60;;;;;;5078614;28;20024;-59
2024/02/23 09:18:22;;;;;;;0.60;0.32;;;9.80;70.90;;;;;;5078835;28;20028;-60
2024/02/23 09:20:48;;;;;;;2.10;0.77;;;9.80;71.20;;;;;;5080958;28;20104;-59
2024/02/23 09:23:14;;;;;;;0.35;0.35;;;9.80;69.80;;;;;;5080389;28;20024;-59
2024/02/23 09:25:39;;;;;;;0.52;0.28;;;9.90;70.30;;;;;;5080678;28;20099;-59
2024/02/23 09:28:05;;;;;;;1.17;0.57;;;10.00;69.90;;;;;;5082496;28;20481;-59
2024/02/23 09:30:31;;;;;;;1.33;0.30;;;10.10;69.00;;;;;;5080386;28;20028;-61
2024/02/23 09:32:56;;;;;;;1.73;0.40;;;10.30;70.40;;;;;;5079320;28;20666;-58
2024/02/23 09:35:21;;;;;;;0.60;0.30;;;10.50;70.10;;;;;;5080340;28;20023;-60
2024/02/23 09:37:47;;;;;;;1.55;0.52;;;10.60;69.10;;;;;;5080216;28;20036;-60
2024/02/23 09:40:14;;;;;;;0.88;0.32;;;10.80;68.60;;;;;;5074539;28;20036;-59
2024/02/23 09:42:41;;;;;;;1.15;0.40;;;10.90;68.50;;;;;;5078626;28;20388;-60
2024/02/23 09:45:08;;;;;;;0.40;0.30;;;11.20;70.00;;;;;;5080286;28;20471;-59
2024/02/23 09:47:34;;;;;;;0.55;0.43;;;11.30;69.60;;;;;;5080146;28;20031;-60
2024/02/23 09:50:03;;;;;;;2.42;0.57;;;11.60;70.60;;;;;;5080030;28;20020;-59
2024/02/23 09:52:29;;;;;;;2.30;0.40;;;11.70;70.00;;;;;;5080155;28;20020;-60
2024/02/23 09:54:55;;;;;;;0.82;0.38;;;11.70;69.50;;;;;;5076790;28;20035;-60
2024/02/23 09:57:21;;;;;;;1.25;0.57;;;11.80;68.80;;;;;;5076476;28;20543;-60
2024/02/23 09:59:49;;;;;;;0.90;0.45;;;11.70;66.30;;;;;;5074018;28;20028;-60
2024/02/23 10:02:16;;;;;;;2.00;0.32;;;11.60;63.90;;;;;;5074171;28;20025;-59
2024/02/23 10:04:45;;;;;;;4.18;0.68;;;11.70;64.70;;;;;;5079765;28;20051;-60
2024/02/23 10:07:15;;;;;;;1.38;0.52;;;11.70;63.60;;;;;;5079672;28;20088;-59
2024/02/23 10:09:40;;;;;;;0.40;0.40;;;11.60;63.20;;;;;;5071523;28;20063;-59
2024/02/23 10:12:06;;;;;;;1.20;0.47;;;11.70;63.40;;;;;;5079298;28;20549;-60
2024/02/23 10:14:32;;;;;;;0.50;0.20;;;11.80;62.60;;;;;;5074762;28;20413;-60
2024/02/23 10:16:58;;;;;;;2.85;0.50;;;11.80;60.20;;;;;;5079920;28;20028;-60
2024/02/23 10:19:28;;;;;;;1.75;0.30;;;11.90;59.90;;;;;;5079416;28;20012;-60
2024/02/23 10:21:54;;;;;;;1.30;0.60;;;11.90;60.00;;;;;;5079492;28;20103;-60
2024/02/23 10:24:20;;;;;;;0.85;0.63;;;12.00;60.40;;;;;;5081380;28;20457;-61
2024/02/23 10:26:46;;;;;;;2.75;0.90;;;11.90;59.60;;;;;;5079615;28;20024;-60
2024/02/23 10:29:12;;;;;;;2.42;0.85;;;11.80;58.90;;;;;;5079944;28;22926;-61
2024/02/23 10:31:39;;;;;;;6.40;1.17;;;11.80;57.80;;;;;;5079450;28;20023;-60
2024/02/23 10:34:14;;;;;;;2.88;1.20;;;11.80;58.30;;;;;;5079407;28;20027;-60
2024/02/23 10:36:42;;;;;;;1.30;0.82;;;11.70;58.20;;;;;;5079383;28;20107;-60
2024/02/23 10:39:12;;;;;;;1.75;0.80;;;11.70;56.80;;;;;;5072950;28;20032;-60
2024/02/23 10:41:43;;;;;;;2.40;0.93;;;11.70;57.30;;;;;;5079386;28;20501;-60
2024/02/23 10:44:10;;;;;;;1.55;0.63;;;11.70;57.20;;;;;;5077611;28;20031;-60
2024/02/23 10:46:37;;;;;;;1.23;0.68;;;11.80;58.00;;;;;;5079074;28;20070;-62
2024/02/23 10:49:03;;;;;;;0.98;0.60;;;11.80;57.50;;;;;;5078125;28;20633;-60
2024/02/23 10:51:29;;;;;;;0.90;0.60;;;11.90;57.50;;;;;;5080990;28;20032;-61
2024/02/23 10:53:55;;;;;;;0.40;0.40;;;11.90;57.70;;;;;;5079467;28;20024;-61
2024/02/23 10:56:22;;;;;;;1.02;0.50;;;11.80;54.90;;;;;;5077758;28;20028;-60
2024/02/23 10:58:48;;;;;;;0.68;0.40;;;11.70;55.80;;;;;;5078868;28;20024;-62
2024/02/23 11:01:14;;;;;;;0.30;0.30;;;11.60;56.20;;;;;;5079265;28;20385;-61
2024/02/23 11:03:44;;;;;;;1.60;0.60;;;11.60;56.90;;;;;;5078982;28;20055;-60
2024/02/23 11:06:10;;;;;;;3.20;1.10;;;11.50;57.30;;;;;;5078903;28;20028;-60
2024/02/23 11:08:38;;;;;;;4.28;0.75;;;11.60;56.90;;;;;;5078892;28;20048;-60
2024/02/23 11:11:11;;;;;;;1.98;0.60;;;11.60;56.30;;;;;;5076753;28;20063;-60
2024/02/23 11:13:37;;;;;;;0.73;0.43;;;11.60;57.10;;;;;;5076976;28;20020;-60
2024/02/23 11:16:04;;;;;;;3.85;0.80;;;11.60;56.70;;;;;;5076470;28;20020;-62
2024/02/23 11:18:32;;;;;;;2.42;0.73;;;11.50;56.00;;;;;;5076933;28;20508;-60
2024/02/23 11:21:02;;;;;;;2.63;1.15;;;11.50;55.70;;;;;;5074301;28;20031;-60
2024/02/23 11:23:40;;;;;;;2.15;0.52;;;11.40;56.00;;;;;;5078805;28;20050;-61
2024/02/23 11:26:08;;;;;;;1.75;0.65;;;11.50;56.20;;;;;;5078673;28;20028;-61
2024/02/23 11:28:41;;;;;;;1.70;0.60;;;11.40;55.90;;;;;;5080626;28;20031;-60
2024/02/23 11:31:15;;;;;;;0.80;0.60;;;11.50;56.10;;;;;;5082536;28;20020;-61
2024/02/23 11:33:47;;;;;;;0.55;0.50;;;11.60;55.80;;;;;;5080801;28;20048;-60
2024/02/23 11:36:12;;;;;;;1.67;0.77;;;11.60;54.50;;;;;;5070233;28;20021;-59
2024/02/23 11:38:39;;;;;;;1.85;0.73;;;11.50;53.80;;;;;;5080796;28;20037;-60
2024/02/23 11:41:04;;;;;;;2.45;0.70;;;11.60;55.00;;;;;;5076716;28;20573;-60
2024/02/23 11:43:34;;;;;;;2.30;0.70;;;11.60;54.90;;;;;;5082654;28;20169;-61
2024/02/23 11:45:59;;;;;;;0.55;0.45;;;11.70;54.00;;;;;;5081100;28;20032;-60
2024/02/23 11:48:25;;;;;;;1.27;0.43;;;11.70;52.90;;;;;;5082162;28;20039;-59
2024/02/23 11:50:51;;;;;;;1.70;0.80;;;11.60;52.70;;;;;;5082753;28;20051;-60
2024/02/23 11:53:16;;;;;;;1.90;0.60;;;11.40;51.30;;;;;;5083887;28;20565;-62
2024/02/23 11:55:42;;;;;;;3.00;0.55;;;11.40;51.70;;;;;;5083312;28;20473;-61
2024/02/23 11:58:08;;;;;;;3.67;0.90;;;11.20;51.60;;;;;;5082126;28;20036;-61
2024/02/23 12:00:35;;;;;;;0.35;0.35;;;11.30;51.60;;;;;;5082005;28;20047;-61
2024/02/23 12:03:00;;;;;;;5.68;0.50;;;11.30;51.90;;;;;;5082753;28;20020;-62
2024/02/23 12:05:26;;;;;;;2.97;1.17;;;11.20;52.00;;;;;;5081642;28;20503;-60
2024/02/23 12:07:53;;;;;;;0.93;0.50;;;11.20;48.60;;;;;;5084206;28;20020;-60
2024/02/23 12:10:18;;;;;;;2.08;0.60;;;11.20;50.10;;;;;;5081039;28;20040;-60
2024/02/23 12:12:44;;;;;;;0.73;0.43;;;11.20;50.50;;;;;;5081953;28;20425;-61
2024/02/23 12:15:10;;;;;;;0.43;0.40;;;11.20;50.60;;;;;;5082065;28;20047;-60
2024/02/23 12:17:37;;;;;;;1.77;0.45;;;11.20;51.20;;;;;;5081579;28;20040;-60
2024/02/23 12:20:03;;;;;;;2.28;0.40;;;11.20;51.20;;;;;;5082251;28;20393;-60
2024/02/23 12:22:29;;;;;;;1.48;0.50;;;11.20;51.90;;;;;;5081613;28;20173;-60
2024/02/23 12:24:58;;;;;;;3.22;0.50;;;11.20;51.80;;;;;;5083939;28;20106;-59
2024/02/23 12:27:25;;;;;;;0.88;0.25;;;11.30;51.40;;;;;;5083803;28;20043;-60
2024/02/23 12:29:53;;;;;;;1.67;0.85;;;11.30;50.70;;;;;;5081554;28;20034;-60
2024/02/23 12:32:20;;;;;;;1.13;0.47;;;11.20;50.50;;;;;;5081438;28;20031;-60
2024/02/23 12:34:47;;;;;;;0.90;0.50;;;11.20;49.10;;;;;;5081363;28;20137;-61
2024/02/23 12:37:15;;;;;;;2.65;0.60;;;11.00;48.70;;;;;;5076508;28;20482;-60
2024/02/23 12:39:41;;;;;;;0.73;0.40;;;11.00;49.90;;;;;;5075076;28;20038;-60
2024/02/23 12:42:07;;;;;;;1.88;0.55;;;11.00;50.30;;;;;;5080445;28;20496;-59
2024/02/23 12:44:33;;;;;;;2.50;0.68;;;10.90;50.20;;;;;;5078465;28;20035;-59